sensor_id;sensor_type;location;lat;lon;timestamp;pressure;altitude;pressure_sealevel;temperature;humidity
60974;BME280;46846;51.528;5.076;2024-02-28T00:01:37;101495.53;;;2.69;92.95
60974;BME280;46846;51.528;5.076;2024-02-28T00:04:02;101501.69;;;2.69;92.65
60974;BME280;46846;51.528;5.076;2024-02-28T00:06:27;101495.53;;;2.69;92.74
60974;BME280;46846;51.528;5.076;2024-02-28T00:08:52;101495.53;;;2.67;93.21
60974;BME280;46846;51.528;5.076;2024-02-28T00:11:19;101488.53;;;2.66;92.88
60974;BME280;46846;51.528;5.076;2024-02-28T00:13:45;101486.75;;;2.65;92.80
60974;BME280;46846;51.528;5.076;2024-02-28T00:16:10;101486.75;;;2.65;93.02
60974;BME280;46846;51.528;5.076;2024-02-28T00:18:36;101483.25;;;2.65;92.86
60974;BME280;46846;51.528;5.076;2024-02-28T00:21:02;101484.97;;;2.64;92.74
60974;BME280;46846;51.528;5.076;2024-02-28T00:23:27;101482.38;;;2.63;92.89
60974;BME280;46846;51.528;5.076;2024-02-28T00:25:52;101487.63;;;2.63;93.01
60974;BME280;46846;51.528;5.076;2024-02-28T00:28:18;101484.06;;;2.60;92.77
60974;BME280;46846;51.528;5.076;2024-02-28T00:30:44;101483.22;;;2.60;92.60
60974;BME280;46846;51.528;5.076;2024-02-28T00:33:09;101486.69;;;2.60;92.80
60974;BME280;46846;51.528;5.076;2024-02-28T00:35:34;101489.31;;;2.57;92.88
60974;BME280;46846;51.528;5.076;2024-02-28T00:38:00;101486.69;;;2.57;93.22
60974;BME280;46846;51.528;5.076;2024-02-28T00:40:25;101477.06;;;2.56;92.56
60974;BME280;46846;51.528;5.076;2024-02-28T00:42:51;101485.81;;;2.55;92.96
60974;BME280;46846;51.528;5.076;2024-02-28T00:45:16;101477.03;;;2.55;92.39
60974;BME280;46846;51.528;5.076;2024-02-28T00:47:42;101481.38;;;2.54;92.67
60974;BME280;46846;51.528;5.076;2024-02-28T00:50:07;101483.16;;;2.54;92.68
60974;BME280;46846;51.528;5.076;2024-02-28T00:52:33;101477.88;;;2.52;92.58
60974;BME280;46846;51.528;5.076;2024-02-28T00:54:58;101484.91;;;2.52;92.29
60974;BME280;46846;51.528;5.076;2024-02-28T00:57:24;101476.09;;;2.50;92.58
60974;BME280;46846;51.528;5.076;2024-02-28T00:59:49;101477.00;;;2.50;92.65
60974;BME280;46846;51.528;5.076;2024-02-28T01:02:15;101477.88;;;2.49;92.84
60974;BME280;46846;51.528;5.076;2024-02-28T01:04:41;101472.59;;;2.49;92.56
60974;BME280;46846;51.528;5.076;2024-02-28T01:07:06;101471.72;;;2.47;92.38
60974;BME280;46846;51.528;5.076;2024-02-28T01:09:31;101465.56;;;2.45;92.88
60974;BME280;46846;51.528;5.076;2024-02-28T01:11:56;101459.44;;;2.44;92.57
60974;BME280;46846;51.528;5.076;2024-02-28T01:14:22;101464.66;;;2.43;92.76
60974;BME280;46846;51.528;5.076;2024-02-28T01:16:47;101456.78;;;2.43;92.51
60974;BME280;46846;51.528;5.076;2024-02-28T01:19:12;101456.78;;;2.43;92.49
60974;BME280;46846;51.528;5.076;2024-02-28T01:21:38;101460.28;;;2.42;92.78
60974;BME280;46846;51.528;5.076;2024-02-28T01:24:03;101455.00;;;2.40;92.76
60974;BME280;46846;51.528;5.076;2024-02-28T01:26:29;101461.13;;;2.39;92.67
60974;BME280;46846;51.528;5.076;2024-02-28T01:28:54;101468.09;;;2.39;92.54
60974;BME280;46846;51.528;5.076;2024-02-28T01:31:19;101462.00;;;2.38;92.87
60974;BME280;46846;51.528;5.076;2024-02-28T01:33:44;101455.00;;;2.37;92.73
60974;BME280;46846;51.528;5.076;2024-02-28T01:36:11;101462.88;;;2.37;92.42
60974;BME280;46846;51.528;5.076;2024-02-28T01:38:36;101465.47;;;2.36;92.21
60974;BME280;46846;51.528;5.076;2024-02-28T01:41:01;101469.84;;;2.34;92.73
60974;BME280;46846;51.528;5.076;2024-02-28T01:43:26;101469.84;;;2.34;92.59
60974;BME280;46846;51.528;5.076;2024-02-28T01:45:52;101474.19;;;2.33;92.25
60974;BME280;46846;51.528;5.076;2024-02-28T01:48:17;101477.69;;;2.32;92.35
60974;BME280;46846;51.528;5.076;2024-02-28T01:50:42;101485.53;;;2.30;92.30
60974;BME280;46846;51.528;5.076;2024-02-28T01:53:08;101498.66;;;2.30;92.50
60974;BME280;46846;51.528;5.076;2024-02-28T01:55:34;101489.03;;;2.29;92.47
60974;BME280;46846;51.528;5.076;2024-02-28T01:57:59;101496.88;;;2.28;92.39
60974;BME280;46846;51.528;5.076;2024-02-28T02:00:25;101489.03;;;2.26;92.42
60974;BME280;46846;51.528;5.076;2024-02-28T02:02:52;101490.75;;;2.26;92.28
60974;BME280;46846;51.528;5.076;2024-02-28T02:05:18;101480.22;;;2.24;92.33
60974;BME280;46846;51.528;5.076;2024-02-28T02:07:47;101471.47;;;2.24;92.45
60974;BME280;46846;51.528;5.076;2024-02-28T02:10:13;101464.47;;;2.23;92.51
60974;BME280;46846;51.528;5.076;2024-02-28T02:12:38;101467.06;;;2.21;92.76
60974;BME280;46846;51.528;5.076;2024-02-28T02:15:04;101453.94;;;2.21;92.43
60974;BME280;46846;51.528;5.076;2024-02-28T02:17:29;101460.06;;;2.20;92.56
60974;BME280;46846;51.528;5.076;2024-02-28T02:19:54;101466.19;;;2.19;92.33
60974;BME280;46846;51.528;5.076;2024-02-28T02:22:20;101468.81;;;2.19;92.41
60974;BME280;46846;51.528;5.076;2024-02-28T02:24:45;101461.81;;;2.18;92.42
60974;BME280;46846;51.528;5.076;2024-02-28T02:27:10;101461.78;;;2.16;92.58
60974;BME280;46846;51.528;5.076;2024-02-28T02:29:36;101470.53;;;2.15;92.40
60974;BME280;46846;51.528;5.076;2024-02-28T02:32:02;101468.75;;;2.14;92.55
60974;BME280;46846;51.528;5.076;2024-02-28T02:34:28;101466.97;;;2.13;92.25
60974;BME280;46846;51.528;5.076;2024-02-28T02:36:53;101464.34;;;2.12;92.17
60974;BME280;46846;51.528;5.076;2024-02-28T02:39:18;101474.84;;;2.10;92.13
60974;BME280;46846;51.528;5.076;2024-02-28T02:41:43;101475.69;;;2.09;92.48
60974;BME280;46846;51.528;5.076;2024-02-28T02:44:09;101479.19;;;2.08;92.19
60974;BME280;46846;51.528;5.076;2024-02-28T02:46:34;101479.19;;;2.08;92.04
60974;BME280;46846;51.528;5.076;2024-02-28T02:48:59;101483.56;;;2.08;92.33
60974;BME280;46846;51.528;5.076;2024-02-28T02:51:24;101474.78;;;2.05;92.24
60974;BME280;46846;51.528;5.076;2024-02-28T02:53:50;101485.28;;;2.05;92.45
60974;BME280;46846;51.528;5.076;2024-02-28T02:56:16;101488.78;;;2.04;92.01
60974;BME280;46846;51.528;5.076;2024-02-28T02:58:41;101485.25;;;2.04;92.26
60974;BME280;46846;51.528;5.076;2024-02-28T03:01:07;101480.03;;;2.02;92.25
60974;BME280;46846;51.528;5.076;2024-02-28T03:03:33;101485.25;;;2.02;91.80
60974;BME280;46846;51.528;5.076;2024-02-28T03:05:59;101477.38;;;2.01;92.34
60974;BME280;46846;51.528;5.076;2024-02-28T03:08:24;101478.22;;;2.01;92.52
60974;BME280;46846;51.528;5.076;2024-02-28T03:10:50;101480.84;;;2.00;92.25
60974;BME280;46846;51.528;5.076;2024-02-28T03:13:15;101479.97;;;1.99;92.01
60974;BME280;46846;51.528;5.076;2024-02-28T03:15:40;101478.19;;;1.98;92.30
60974;BME280;46846;51.528;5.076;2024-02-28T03:18:06;101480.81;;;1.98;92.41
60974;BME280;46846;51.528;5.076;2024-02-28T03:20:32;101479.94;;;1.96;92.18
60974;BME280;46846;51.528;5.076;2024-02-28T03:22:57;101475.56;;;1.95;92.29
60974;BME280;46846;51.528;5.076;2024-02-28T03:25:22;101481.66;;;1.94;92.13
60974;BME280;46846;51.528;5.076;2024-02-28T03:27:47;101484.25;;;1.94;92.08
60974;BME280;46846;51.528;5.076;2024-02-28T03:30:13;101474.63;;;1.93;92.14
60974;BME280;46846;51.528;5.076;2024-02-28T03:32:38;101479.03;;;1.93;92.04
60974;BME280;46846;51.528;5.076;2024-02-28T03:35:03;101477.25;;;1.91;92.11
60974;BME280;46846;51.528;5.076;2024-02-28T03:37:30;101477.25;;;1.91;92.30
60974;BME280;46846;51.528;5.076;2024-02-28T03:39:56;101464.13;;;1.90;91.95
60974;BME280;46846;51.528;5.076;2024-02-28T03:42:22;101466.75;;;1.90;92.43
60974;BME280;46846;51.528;5.076;2024-02-28T03:44:47;101466.75;;;1.90;92.35
60974;BME280;46846;51.528;5.076;2024-02-28T03:47:12;101456.19;;;1.87;92.21
60974;BME280;46846;51.528;5.076;2024-02-28T03:49:37;101459.72;;;1.87;92.25
60974;BME280;46846;51.528;5.076;2024-02-28T03:52:03;101468.44;;;1.86;92.46
60974;BME280;46846;51.528;5.076;2024-02-28T03:54:31;101467.56;;;1.86;92.39
60974;BME280;46846;51.528;5.076;2024-02-28T03:56:56;101471.94;;;1.85;92.32
60974;BME280;46846;51.528;5.076;2024-02-28T03:59:21;101476.28;;;1.85;92.44
60974;BME280;46846;51.528;5.076;2024-02-28T04:01:46;101478.91;;;1.85;92.04
60974;BME280;46846;51.528;5.076;2024-02-28T04:04:12;101471.00;;;1.83;92.30
60974;BME280;46846;51.528;5.076;2024-02-28T04:06:37;101473.63;;;1.83;92.27
60974;BME280;46846;51.528;5.076;2024-02-28T04:09:02;101468.38;;;1.83;92.05
60974;BME280;46846;51.528;5.076;2024-02-28T04:11:28;101476.28;;;1.82;92.50
60974;BME280;46846;51.528;5.076;2024-02-28T04:13:54;101481.50;;;1.80;92.36
60974;BME280;46846;51.528;5.076;2024-02-28T04:16:19;101472.72;;;1.80;92.01
60974;BME280;46846;51.528;5.076;2024-02-28T04:18:44;101478.84;;;1.78;92.64
60974;BME280;46846;51.528;5.076;2024-02-28T04:21:10;101466.59;;;1.79;92.18
60974;BME280;46846;51.528;5.076;2024-02-28T04:23:35;101474.44;;;1.77;92.11
60974;BME280;46846;51.528;5.076;2024-02-28T04:26:00;101466.59;;;1.77;92.09
60974;BME280;46846;51.528;5.076;2024-02-28T04:28:26;101468.34;;;1.77;92.33
60974;BME280;46846;51.528;5.076;2024-02-28T04:30:52;101462.19;;;1.75;92.36
60974;BME280;46846;51.528;5.076;2024-02-28T04:33:17;101456.09;;;1.76;92.37
60974;BME280;46846;51.528;5.076;2024-02-28T04:35:42;101463.09;;;1.77;92.33
60974;BME280;46846;51.528;5.076;2024-02-28T04:38:08;101459.56;;;1.76;92.22
60974;BME280;46846;51.528;5.076;2024-02-28T04:40:33;101466.56;;;1.74;92.33
60974;BME280;46846;51.528;5.076;2024-02-28T04:42:59;101467.44;;;1.73;92.19
60974;BME280;46846;51.528;5.076;2024-02-28T04:45:24;101467.44;;;1.73;92.10
60974;BME280;46846;51.528;5.076;2024-02-28T04:47:49;101479.69;;;1.74;92.63
60974;BME280;46846;51.528;5.076;2024-02-28T04:50:16;101478.78;;;1.72;92.28
60974;BME280;46846;51.528;5.076;2024-02-28T04:52:42;101486.66;;;1.72;92.48
60974;BME280;46846;51.528;5.076;2024-02-28T04:55:07;101491.91;;;1.72;92.04
60974;BME280;46846;51.528;5.076;2024-02-28T04:57:32;101486.66;;;1.72;92.48
60974;BME280;46846;51.528;5.076;2024-02-28T04:59:58;101497.16;;;1.72;91.87
60974;BME280;46846;51.528;5.076;2024-02-28T05:02:23;101506.75;;;1.72;92.28
60974;BME280;46846;51.528;5.076;2024-02-28T05:04:50;101507.63;;;1.71;92.32
60974;BME280;46846;51.528;5.076;2024-02-28T05:07:16;101503.22;;;1.71;91.98
60974;BME280;46846;51.528;5.076;2024-02-28T05:09:41;101505.00;;;1.71;92.21
60974;BME280;46846;51.528;5.076;2024-02-28T05:12:06;101507.63;;;1.71;92.05
60974;BME280;46846;51.528;5.076;2024-02-28T05:14:32;101503.25;;;1.70;91.78
60974;BME280;46846;51.528;5.076;2024-02-28T05:16:57;101515.47;;;1.69;91.98
60974;BME280;46846;51.528;5.076;2024-02-28T05:19:22;101509.31;;;1.67;92.10
60974;BME280;46846;51.528;5.076;2024-02-28T05:21:48;101524.16;;;1.67;92.04
60974;BME280;46846;51.528;5.076;2024-02-28T05:24:14;101523.31;;;1.66;91.88
60974;BME280;46846;51.528;5.076;2024-02-28T05:26:39;101524.16;;;1.65;92.00
60974;BME280;46846;51.528;5.076;2024-02-28T05:29:04;101522.38;;;1.64;91.76
60974;BME280;46846;51.528;5.076;2024-02-28T05:31:31;101518.00;;;1.63;91.84
60974;BME280;46846;51.528;5.076;2024-02-28T05:33:59;101516.25;;;1.62;92.14
60974;BME280;46846;51.528;5.076;2024-02-28T05:36:28;101527.59;;;1.61;91.89
60974;BME280;46846;51.528;5.076;2024-02-28T05:38:54;101521.44;;;1.60;92.06
60974;BME280;46846;51.528;5.076;2024-02-28T05:41:20;101526.69;;;1.60;92.09
60974;BME280;46846;51.528;5.076;2024-02-28T05:43:46;101518.84;;;1.59;92.16
60974;BME280;46846;51.528;5.076;2024-02-28T05:46:12;101530.19;;;1.58;91.79
60974;BME280;46846;51.528;5.076;2024-02-28T05:48:37;101525.78;;;1.57;92.00
60974;BME280;46846;51.528;5.076;2024-02-28T05:51:02;101536.28;;;1.57;91.91
60974;BME280;46846;51.528;5.076;2024-02-28T05:53:28;101528.38;;;1.54;92.16
60974;BME280;46846;51.528;5.076;2024-02-28T05:55:57;101522.22;;;1.52;92.13
60974;BME280;46846;51.528;5.076;2024-02-28T05:58:22;101529.22;;;1.53;92.16
60974;BME280;46846;51.528;5.076;2024-02-28T06:00:48;101524.84;;;1.52;92.29
60974;BME280;46846;51.528;5.076;2024-02-28T06:03:13;101528.34;;;1.50;92.33
60974;BME280;46846;51.528;5.076;2024-02-28T06:05:39;101528.34;;;1.50;92.39
60974;BME280;46846;51.528;5.076;2024-02-28T06:08:04;101533.56;;;1.49;92.41
60974;BME280;46846;51.528;5.076;2024-02-28T06:10:29;101537.03;;;1.49;92.48
60974;BME280;46846;51.528;5.076;2024-02-28T06:12:55;101529.16;;;1.48;92.36
60974;BME280;46846;51.528;5.076;2024-02-28T06:15:20;101533.53;;;1.47;92.32
60974;BME280;46846;51.528;5.076;2024-02-28T06:17:45;101531.72;;;1.45;92.44
60974;BME280;46846;51.528;5.076;2024-02-28T06:20:10;101530.00;;;1.45;92.37
60974;BME280;46846;51.528;5.076;2024-02-28T06:22:36;101531.75;;;1.46;92.37
60974;BME280;46846;51.528;5.076;2024-02-28T06:25:01;101530.88;;;1.44;92.19
60974;BME280;46846;51.528;5.076;2024-02-28T06:27:26;101549.16;;;1.41;92.60
60974;BME280;46846;51.528;5.076;2024-02-28T06:29:52;101537.81;;;1.42;92.46
60974;BME280;46846;51.528;5.076;2024-02-28T06:32:17;101527.31;;;1.42;92.82
60974;BME280;46846;51.528;5.076;2024-02-28T06:34:42;101529.09;;;1.43;92.37
60974;BME280;46846;51.528;5.076;2024-02-28T06:37:08;101538.69;;;1.43;92.32
60974;BME280;46846;51.528;5.076;2024-02-28T06:39:33;101551.81;;;1.43;92.49
60974;BME280;46846;51.528;5.076;2024-02-28T06:41:58;101545.69;;;1.42;92.26
60974;BME280;46846;51.528;5.076;2024-02-28T06:44:24;101544.81;;;1.42;92.17
60974;BME280;46846;51.528;5.076;2024-02-28T06:46:49;101551.78;;;1.41;92.44
60974;BME280;46846;51.528;5.076;2024-02-28T06:49:14;101557.03;;;1.41;92.22
60974;BME280;46846;51.528;5.076;2024-02-28T06:51:39;101557.03;;;1.40;92.31
60974;BME280;46846;51.528;5.076;2024-02-28T06:54:05;101564.03;;;1.41;92.23
60974;BME280;46846;51.528;5.076;2024-02-28T06:56:30;101574.53;;;1.41;92.44
60974;BME280;46846;51.528;5.076;2024-02-28T06:58:56;101579.78;;;1.41;92.26
60974;BME280;46846;51.528;5.076;2024-02-28T07:01:22;101582.34;;;1.39;92.39
60974;BME280;46846;51.528;5.076;2024-02-28T07:03:47;101587.63;;;1.42;92.16
60974;BME280;46846;51.528;5.076;2024-02-28T07:06:13;101594.59;;;1.40;92.37
60974;BME280;46846;51.528;5.076;2024-02-28T07:08:38;101599.00;;;1.40;92.30
60974;BME280;46846;51.528;5.076;2024-02-28T07:11:03;101609.47;;;1.40;92.39
60974;BME280;46846;51.528;5.076;2024-02-28T07:13:29;101613.78;;;1.38;92.40
60974;BME280;46846;51.528;5.076;2024-02-28T07:15:54;101605.94;;;1.36;92.83
60974;BME280;46846;51.528;5.076;2024-02-28T07:18:20;101607.69;;;1.37;92.54
60974;BME280;46846;51.528;5.076;2024-02-28T07:20:45;101605.06;;;1.37;92.42
60974;BME280;46846;51.528;5.076;2024-02-28T07:23:11;101595.44;;;1.38;92.35
60974;BME280;46846;51.528;5.076;2024-02-28T07:25:36;101609.41;;;1.36;92.35
60974;BME280;46846;51.528;5.076;2024-02-28T07:28:01;101603.31;;;1.36;92.40
60974;BME280;46846;51.528;5.076;2024-02-28T07:30:27;101591.91;;;1.35;92.44
60974;BME280;46846;51.528;5.076;2024-02-28T07:32:53;101601.56;;;1.38;92.59
60974;BME280;46846;51.528;5.076;2024-02-28T07:35:18;101603.28;;;1.34;92.49
60974;BME280;46846;51.528;5.076;2024-02-28T07:37:44;101599.75;;;1.34;92.75
60974;BME280;46846;51.528;5.076;2024-02-28T07:40:09;101600.63;;;1.33;92.42
60974;BME280;46846;51.528;5.076;2024-02-28T07:42:34;101613.78;;;1.36;92.55
60974;BME280;46846;51.528;5.076;2024-02-28T07:45:00;101615.56;;;1.37;92.10
60974;BME280;46846;51.528;5.076;2024-02-28T07:47:25;101610.31;;;1.37;92.29
60974;BME280;46846;51.528;5.076;2024-02-28T07:49:51;101612.03;;;1.35;92.53
60974;BME280;46846;51.528;5.076;2024-02-28T07:52:16;101619.06;;;1.39;92.32
60974;BME280;46846;51.528;5.076;2024-02-28T07:54:42;101618.19;;;1.37;92.38
60974;BME280;46846;51.528;5.076;2024-02-28T07:57:08;101630.38;;;1.36;92.43
60974;BME280;46846;51.528;5.076;2024-02-28T07:59:38;101632.16;;;1.36;92.55
60974;BME280;46846;51.528;5.076;2024-02-28T08:02:04;101632.09;;;1.34;92.60
60974;BME280;46846;51.528;5.076;2024-02-28T08:04:29;101637.34;;;1.34;92.64
60974;BME280;46846;51.528;5.076;2024-02-28T08:06:56;101633.00;;;1.35;92.90
60974;BME280;46846;51.528;5.076;2024-02-28T08:09:21;101634.78;;;1.36;92.85
60974;BME280;46846;51.528;5.076;2024-02-28T08:11:47;101642.63;;;1.38;92.45
60974;BME280;46846;51.528;5.076;2024-02-28T08:14:12;101641.75;;;1.35;92.77
60974;BME280;46846;51.528;5.076;2024-02-28T08:16:38;101646.97;;;1.35;92.57
60974;BME280;46846;51.528;5.076;2024-02-28T08:19:03;101646.16;;;1.38;92.68
60974;BME280;46846;51.528;5.076;2024-02-28T08:21:28;101647.94;;;1.41;92.48
60974;BME280;46846;51.528;5.076;2024-02-28T08:23:54;101652.31;;;1.39;92.53
60974;BME280;46846;51.528;5.076;2024-02-28T08:26:19;101653.16;;;1.39;92.46
60974;BME280;46846;51.528;5.076;2024-02-28T08:28:44;101648.81;;;1.40;92.56
60974;BME280;46846;51.528;5.076;2024-02-28T08:31:10;101658.44;;;1.41;92.52
60974;BME280;46846;51.528;5.076;2024-02-28T08:33:35;101660.25;;;1.43;92.62
60974;BME280;46846;51.528;5.076;2024-02-28T08:36:00;101653.22;;;1.44;92.58
60974;BME280;46846;51.528;5.076;2024-02-28T08:38:26;101656.75;;;1.44;92.86
60974;BME280;46846;51.528;5.076;2024-02-28T08:40:51;101660.25;;;1.43;92.45
60974;BME280;46846;51.528;5.076;2024-02-28T08:43:16;101664.63;;;1.44;92.54
60974;BME280;46846;51.528;5.076;2024-02-28T08:45:41;101664.59;;;1.43;92.61
60974;BME280;46846;51.528;5.076;2024-02-28T08:48:07;101675.94;;;1.42;92.62
60974;BME280;46846;51.528;5.076;2024-02-28T08:50:32;101668.88;;;1.38;92.40
60974;BME280;46846;51.528;5.076;2024-02-28T08:52:58;101669.84;;;1.43;92.71
60974;BME280;46846;51.528;5.076;2024-02-28T08:55:23;101670.78;;;1.46;92.64
60974;BME280;46846;51.528;5.076;2024-02-28T08:57:48;101669.84;;;1.43;92.52
60974;BME280;46846;51.528;5.076;2024-02-28T09:00:14;101677.75;;;1.44;92.41
60974;BME280;46846;51.528;5.076;2024-02-28T09:02:40;101673.34;;;1.45;92.45
60974;BME280;46846;51.528;5.076;2024-02-28T09:05:05;101671.66;;;1.47;92.42
60974;BME280;46846;51.528;5.076;2024-02-28T09:07:31;101669.94;;;1.49;92.56
60974;BME280;46846;51.528;5.076;2024-02-28T09:09:56;101670.72;;;1.45;92.67
60974;BME280;46846;51.528;5.076;2024-02-28T09:12:21;101670.78;;;1.46;92.68
60974;BME280;46846;51.528;5.076;2024-02-28T09:14:47;101669.03;;;1.47;92.66
60974;BME280;46846;51.528;5.076;2024-02-28T09:17:19;101666.38;;;1.45;92.79
60974;BME280;46846;51.528;5.076;2024-02-28T09:19:44;101655.97;;;1.50;92.79
60974;BME280;46846;51.528;5.076;2024-02-28T09:22:10;101659.44;;;1.49;92.71
60974;BME280;46846;51.528;5.076;2024-02-28T09:24:36;101662.97;;;1.51;93.04
60974;BME280;46846;51.528;5.076;2024-02-28T09:27:02;101670.06;;;1.55;92.79
60974;BME280;46846;51.528;5.076;2024-02-28T09:29:28;101667.47;;;1.58;92.69
60974;BME280;46846;51.528;5.076;2024-02-28T09:31:53;101659.63;;;1.60;92.76
60974;BME280;46846;51.528;5.076;2024-02-28T09:34:18;101661.34;;;1.58;92.37
60974;BME280;46846;51.528;5.076;2024-02-28T09:36:44;101668.31;;;1.57;92.77
60974;BME280;46846;51.528;5.076;2024-02-28T09:39:13;101665.75;;;1.60;92.64
60974;BME280;46846;51.528;5.076;2024-02-28T09:41:40;101663.97;;;1.59;92.93
60974;BME280;46846;51.528;5.076;2024-02-28T09:44:06;101664.03;;;1.62;92.66
60974;BME280;46846;51.528;5.076;2024-02-28T09:46:32;101669.25;;;1.61;92.12
60974;BME280;46846;51.528;5.076;2024-02-28T09:48:59;101665.75;;;1.60;92.63
60974;BME280;46846;51.528;5.076;2024-02-28T09:51:26;101665.75;;;1.60;92.37
60974;BME280;46846;51.528;5.076;2024-02-28T09:53:52;101662.28;;;1.61;92.79
60974;BME280;46846;51.528;5.076;2024-02-28T09:56:18;101667.53;;;1.61;92.81
60974;BME280;46846;51.528;5.076;2024-02-28T09:58:44;101661.38;;;1.61;92.47
60974;BME280;46846;51.528;5.076;2024-02-28T10:01:09;101663.16;;;1.62;92.44
60974;BME280;46846;51.528;5.076;2024-02-28T10:03:36;101661.31;;;1.56;93.05
60974;BME280;46846;51.528;5.076;2024-02-28T10:06:03;101662.19;;;1.55;92.74
60974;BME280;46846;51.528;5.076;2024-02-28T10:08:28;101656.09;;;1.58;92.85
60974;BME280;46846;51.528;5.076;2024-02-28T10:10:54;101660.41;;;1.54;93.21
60974;BME280;46846;51.528;5.076;2024-02-28T10:13:21;101660.41;;;1.56;92.97
60974;BME280;46846;51.528;5.076;2024-02-28T10:15:47;101659.59;;;1.58;93.30
60974;BME280;46846;51.528;5.076;2024-02-28T10:18:12;101657.09;;;1.66;93.16
60974;BME280;46846;51.528;5.076;2024-02-28T10:20:38;101658.94;;;1.72;92.81
60974;BME280;46846;51.528;5.076;2024-02-28T10:23:04;101660.66;;;1.71;92.50
60974;BME280;46846;51.528;5.076;2024-02-28T10:25:30;101657.13;;;1.69;92.81
60974;BME280;46846;51.528;5.076;2024-02-28T10:27:59;101655.47;;;1.74;92.83
60974;BME280;46846;51.528;5.076;2024-02-28T10:30:24;101649.38;;;1.75;92.91
60974;BME280;46846;51.528;5.076;2024-02-28T10:32:49;101640.66;;;1.80;92.91
60974;BME280;46846;51.528;5.076;2024-02-28T10:35:16;101632.91;;;1.87;92.80
60974;BME280;46846;51.528;5.076;2024-02-28T10:37:44;101639.13;;;1.94;92.83
60974;BME280;46846;51.528;5.076;2024-02-28T10:40:10;101638.22;;;1.92;92.97
60974;BME280;46846;51.528;5.076;2024-02-28T10:42:37;101628.63;;;1.93;92.73
60974;BME280;46846;51.528;5.076;2024-02-28T10:45:04;101632.13;;;1.93;92.55
60974;BME280;46846;51.528;5.076;2024-02-28T10:47:30;101633.88;;;1.94;92.47
60974;BME280;46846;51.528;5.076;2024-02-28T10:49:55;101631.22;;;1.91;92.52
60974;BME280;46846;51.528;5.076;2024-02-28T10:52:24;101632.03;;;1.87;92.93
60974;BME280;46846;51.528;5.076;2024-02-28T10:54:54;101628.63;;;1.94;92.92
60974;BME280;46846;51.528;5.076;2024-02-28T10:57:21;101635.72;;;2.01;92.75
60974;BME280;46846;51.528;5.076;2024-02-28T10:59:46;101626.97;;;1.99;92.52
60974;BME280;46846;51.528;5.076;2024-02-28T11:02:12;101638.28;;;1.95;92.47
60974;BME280;46846;51.528;5.076;2024-02-28T11:04:38;101631.31;;;1.97;92.83
60974;BME280;46846;51.528;5.076;2024-02-28T11:07:03;101630.47;;;2.01;92.62
60974;BME280;46846;51.528;5.076;2024-02-28T11:09:30;101628.78;;;2.03;92.75
60974;BME280;46846;51.528;5.076;2024-02-28T11:11:56;101624.44;;;2.09;92.96
60974;BME280;46846;51.528;5.076;2024-02-28T11:14:22;101629.69;;;2.05;92.61
60974;BME280;46846;51.528;5.076;2024-02-28T11:16:59;101631.44;;;2.07;93.05
60974;BME280;46846;51.528;5.076;2024-02-28T11:19:24;101625.38;;;2.11;93.09
60974;BME280;46846;51.528;5.076;2024-02-28T11:21:56;101622.81;;;2.17;92.53
60974;BME280;46846;51.528;5.076;2024-02-28T11:24:25;101623.72;;;2.21;92.82
60974;BME280;46846;51.528;5.076;2024-02-28T11:26:53;101622.81;;;2.17;92.54
60974;BME280;46846;51.528;5.076;2024-02-28T11:29:25;101620.16;;;2.14;92.83
60974;BME280;46846;51.528;5.076;2024-02-28T11:31:51;101618.47;;;2.21;92.62
60974;BME280;46846;51.528;5.076;2024-02-28T11:34:16;101621.97;;;2.18;93.23
60974;BME280;46846;51.528;5.076;2024-02-28T11:36:42;101624.66;;;2.23;92.68
60974;BME280;46846;51.528;5.076;2024-02-28T11:39:08;101620.34;;;2.29;92.86
60974;BME280;46846;51.528;5.076;2024-02-28T11:41:33;101618.69;;;2.38;92.74
60974;BME280;46846;51.528;5.076;2024-02-28T11:43:59;101616.13;;;2.42;92.85
60974;BME280;46846;51.528;5.076;2024-02-28T11:46:26;101609.19;;;2.48;92.65
60974;BME280;46846;51.528;5.076;2024-02-28T11:48:51;101613.50;;;2.41;92.36
60974;BME280;46846;51.528;5.076;2024-02-28T11:51:17;101609.94;;;2.39;92.56
60974;BME280;46846;51.528;5.076;2024-02-28T11:53:42;101610.94;;;2.47;92.75
60974;BME280;46846;51.528;5.076;2024-02-28T11:56:08;101611.75;;;2.43;93.17
60974;BME280;46846;51.528;5.076;2024-02-28T11:58:33;101612.66;;;2.45;93.05
60974;BME280;46846;51.528;5.076;2024-02-28T12:00:58;101609.09;;;2.41;93.64
60974;BME280;46846;51.528;5.076;2024-02-28T12:03:24;101608.28;;;2.44;93.26
60974;BME280;46846;51.528;5.076;2024-02-28T12:05:50;101606.66;;;2.55;93.76
60974;BME280;46846;51.528;5.076;2024-02-28T12:08:19;101599.56;;;2.48;93.34
60974;BME280;46846;51.528;5.076;2024-02-28T12:10:48;101600.53;;;2.58;93.55
60974;BME280;46846;51.528;5.076;2024-02-28T12:13:22;101596.16;;;2.55;93.73
60974;BME280;46846;51.528;5.076;2024-02-28T12:15:47;101595.28;;;2.56;93.76
60974;BME280;46846;51.528;5.076;2024-02-28T12:18:14;101597.84;;;2.53;93.98
60974;BME280;46846;51.528;5.076;2024-02-28T12:20:40;101599.66;;;2.57;94.13
60974;BME280;46846;51.528;5.076;2024-02-28T12:23:05;101593.50;;;2.57;93.84
60974;BME280;46846;51.528;5.076;2024-02-28T12:25:30;101595.25;;;2.55;94.60
60974;BME280;46846;51.528;5.076;2024-02-28T12:27:56;101596.28;;;2.66;94.29
60974;BME280;46846;51.528;5.076;2024-02-28T12:30:21;101600.69;;;2.70;94.04
60974;BME280;46846;51.528;5.076;2024-02-28T12:32:46;101593.63;;;2.66;94.66
60974;BME280;46846;51.528;5.076;2024-02-28T12:35:11;101586.59;;;2.65;95.00
60974;BME280;46846;51.528;5.076;2024-02-28T12:37:37;101586.69;;;2.73;94.92
60974;BME280;46846;51.528;5.076;2024-02-28T12:40:04;101585.88;;;2.77;95.10
60974;BME280;46846;51.528;5.076;2024-02-28T12:42:30;101590.25;;;2.78;95.23
60974;BME280;46846;51.528;5.076;2024-02-28T12:44:56;101587.66;;;2.81;95.73
60974;BME280;46846;51.528;5.076;2024-02-28T12:47:21;101586.78;;;2.81;95.46
60974;BME280;46846;51.528;5.076;2024-02-28T12:49:47;101586.72;;;2.78;95.35
60974;BME280;46846;51.528;5.076;2024-02-28T12:52:12;101589.50;;;2.90;95.48